createdAt,value
2018-09-12T00:00:02.062Z,24.24
2018-09-12T00:01:11.528Z,24.16
2018-09-12T00:02:21.371Z,24.18
2018-09-12T00:03:30.579Z,24.21
2018-09-12T00:04:39.766Z,24.21
2018-09-12T00:05:48.674Z,24.18
2018-09-12T00:06:58.116Z,24.22
2018-09-12T00:08:07.539Z,24.2
2018-09-12T00:09:17.238Z,24.22
2018-09-12T00:10:26.925Z,24.22
2018-09-12T00:11:36.616Z,24.2
2018-09-12T00:12:46.559Z,24.18
2018-09-12T00:13:55.772Z,24.18
2018-09-12T00:15:04.694Z,24.06
2018-09-12T00:16:13.866Z,24.09
2018-09-12T00:17:23.635Z,24.06
2018-09-12T00:18:33.057Z,24.09
2018-09-12T00:19:42.766Z,24.05
2018-09-12T00:20:51.942Z,24.03
2018-09-12T00:22:01.977Z,24.06
2018-09-12T00:23:11.676Z,24.08
2018-09-12T00:24:21.678Z,24.16
2018-09-12T00:25:30.592Z,24.1
2018-09-12T00:26:40.556Z,24.13
2018-09-12T00:27:49.755Z,24.1
2018-09-12T00:28:59.714Z,24.13
2018-09-12T00:30:08.889Z,24.18
2018-09-12T00:31:18.575Z,24.06
2018-09-12T00:32:27.748Z,24.12
2018-09-12T00:33:36.917Z,24.03
2018-09-12T00:34:46.139Z,24.1
2018-09-12T00:35:55.848Z,24.12
2018-09-12T00:37:05.068Z,24.06
2018-09-12T00:38:14.504Z,24.12
2018-09-12T00:39:23.677Z,24.09
2018-09-12T00:40:32.854Z,24.03
2018-09-12T00:41:42.271Z,24.06
2018-09-12T00:42:52.234Z,24.08
2018-09-12T00:44:01.408Z,24.05
2018-09-12T00:45:11.085Z,24.03
2018-09-12T00:46:20.514Z,24.06
2018-09-12T00:47:29.699Z,24.02
2018-09-12T00:48:39.142Z,24.03
2018-09-12T00:49:48.075Z,24.02
2018-09-12T00:50:58.062Z,24.05
2018-09-12T00:52:07.475Z,24.02
2018-09-12T00:53:16.648Z,24.05
2018-09-12T00:54:26.123Z,24.05
2018-09-12T00:55:35.835Z,24.02
2018-09-12T00:56:45.014Z,24
2018-09-12T00:57:54.433Z,24.03
2018-09-12T00:59:03.594Z,23.95
2018-09-12T01:00:12.794Z,24
2018-09-12T01:01:22.250Z,23.91
2018-09-12T01:02:31.943Z,24.03
2018-09-12T01:03:41.616Z,23.98
2018-09-12T01:04:51.069Z,24.03
2018-09-12T01:06:00.752Z,23.95
2018-09-12T01:07:10.764Z,23.94
2018-09-12T01:08:20.183Z,24
2018-09-12T01:09:29.868Z,24
2018-09-12T01:10:39.566Z,23.98
2018-09-12T01:11:49.024Z,23.91
2018-09-12T01:12:58.197Z,23.94
2018-09-12T01:14:07.629Z,24.05
2018-09-12T01:15:17.336Z,23.98
2018-09-12T01:16:27.299Z,23.95
2018-09-12T01:17:37.267Z,23.98
2018-09-12T01:18:46.694Z,23.9
2018-09-12T01:19:56.120Z,23.94
2018-09-12T01:21:05.806Z,24
2018-09-12T01:22:15.034Z,24.02
2018-09-12T01:23:23.963Z,24
2018-09-12T01:24:33.374Z,23.95
2018-09-12T01:25:43.351Z,23.9
2018-09-12T01:26:52.786Z,23.95
2018-09-12T01:28:02.198Z,23.93
2018-09-12T01:29:11.655Z,23.87
2018-09-12T01:30:21.342Z,23.93
2018-09-12T01:31:30.253Z,23.88
2018-09-12T01:32:39.416Z,23.93
2018-09-12T01:33:48.841Z,23.93
2018-09-12T01:34:58.788Z,23.93
2018-09-12T01:36:08.747Z,23.9
2018-09-12T01:37:18.450Z,23.88
2018-09-12T01:38:27.869Z,23.91
2018-09-12T01:39:37.304Z,23.9
2018-09-12T01:40:47.010Z,23.98
2018-09-12T01:41:56.173Z,24
2018-09-12T01:43:05.598Z,23.94
2018-09-12T01:44:15.603Z,23.9
2018-09-12T01:45:25.298Z,23.91
2018-09-12T01:46:34.997Z,23.87
2018-09-12T01:47:44.721Z,23.91
2018-09-12T01:48:53.892Z,23.88
2018-09-12T01:50:03.572Z,23.95
2018-09-12T01:51:13.539Z,23.85
2018-09-12T01:52:23.236Z,23.91
2018-09-12T01:53:33.029Z,23.91
2018-09-12T01:54:42.984Z,23.9
2018-09-12T01:55:52.183Z,23.93
2018-09-12T01:57:01.857Z,23.9
2018-09-12T01:58:11.543Z,23.95
2018-09-12T01:59:20.977Z,23.88
2018-09-12T02:00:30.142Z,23.94
2018-09-12T02:01:39.595Z,23.85
2018-09-12T02:02:49.292Z,23.9
2018-09-12T02:03:58.486Z,23.93
2018-09-12T02:05:08.436Z,23.8
2018-09-12T02:06:18.122Z,23.87
2018-09-12T02:07:27.281Z,23.84
2018-09-12T02:08:36.969Z,23.9
2018-09-12T02:09:46.895Z,23.84
2018-09-12T02:10:56.605Z,23.84
2018-09-12T02:12:05.778Z,23.84
2018-09-12T02:13:15.202Z,23.94
2018-09-12T02:14:24.883Z,23.76
2018-09-12T02:15:34.319Z,23.88
2018-09-12T02:16:43.041Z,23.8
2018-09-12T02:17:52.438Z,23.85
2018-09-12T02:19:01.874Z,23.84
2018-09-12T02:20:11.301Z,23.87
2018-09-12T02:21:21.024Z,23.79
2018-09-12T02:22:30.748Z,23.8
2018-09-12T02:23:40.174Z,23.83
2018-09-12T02:24:49.607Z,23.83
2018-09-12T02:25:59.591Z,23.79
2018-09-12T02:27:08.539Z,23.84
2018-09-12T02:28:18.253Z,23.83
2018-09-12T02:29:27.460Z,23.79
2018-09-12T02:30:36.898Z,23.84
2018-09-12T02:31:46.595Z,23.85
2018-09-12T02:32:56.556Z,23.8
2018-09-12T02:34:06.538Z,23.83
2018-09-12T02:35:16.229Z,23.87
2018-09-12T02:36:25.670Z,23.87
2018-09-12T02:37:35.368Z,23.79
2018-09-12T02:38:44.607Z,23.8
2018-09-12T02:39:54.295Z,23.85
2018-09-12T02:41:03.738Z,23.75
2018-09-12T02:42:12.912Z,23.8
2018-09-12T02:43:22.109Z,23.79
2018-09-12T02:44:31.527Z,23.84
2018-09-12T02:45:41.239Z,23.8
2018-09-12T02:46:51.178Z,23.79
2018-09-12T02:48:00.344Z,23.75
2018-09-12T02:49:09.527Z,23.72
2018-09-12T02:50:18.968Z,23.76
2018-09-12T02:51:28.402Z,23.73
2018-09-12T02:52:37.873Z,23.78
2018-09-12T02:53:47.050Z,23.78
2018-09-12T02:54:55.978Z,23.73
2018-09-12T02:56:05.653Z,23.78
2018-09-12T02:57:15.339Z,23.75
2018-09-12T02:58:25.014Z,23.76
2018-09-12T02:59:34.995Z,23.85
2018-09-12T03:00:44.177Z,23.8
2018-09-12T03:01:53.605Z,23.69
2018-09-12T03:03:03.313Z,23.73
2018-09-12T03:04:12.789Z,23.79
2018-09-12T03:05:22.504Z,23.72
2018-09-12T03:06:32.496Z,23.73
2018-09-12T03:07:41.437Z,23.83
2018-09-12T03:08:51.501Z,23.75
2018-09-12T03:10:01.182Z,23.69
2018-09-12T03:11:10.879Z,23.73
2018-09-12T03:12:20.317Z,23.73
2018-09-12T03:13:29.801Z,23.72
2018-09-12T03:14:38.980Z,23.76
2018-09-12T03:15:48.414Z,23.79
2018-09-12T03:16:58.116Z,23.78
2018-09-12T03:18:07.615Z,23.8
2018-09-12T03:19:17.054Z,23.78
2018-09-12T03:20:27.202Z,23.8
2018-09-12T03:21:36.775Z,23.79
2018-09-12T03:22:45.463Z,23.8
2018-09-12T03:23:55.147Z,23.75
2018-09-12T03:25:04.313Z,23.9
2018-09-12T03:26:13.492Z,23.79
2018-09-12T03:27:22.971Z,23.75
2018-09-12T03:28:32.414Z,23.79
2018-09-12T03:29:42.133Z,23.84
2018-09-12T03:30:51.556Z,23.88
2018-09-12T03:32:01.284Z,23.83
2018-09-12T03:33:42.809Z,23.76
2018-09-12T03:34:52.511Z,23.78
2018-09-12T03:36:01.708Z,23.75
2018-09-12T03:37:10.873Z,23.84
2018-09-12T03:38:19.781Z,23.78
2018-09-12T03:39:29.280Z,23.75
2018-09-12T03:40:39.008Z,23.69
2018-09-12T03:41:48.474Z,23.75
2018-09-12T03:42:57.385Z,23.78
2018-09-12T03:44:06.559Z,23.73
2018-09-12T03:45:15.733Z,23.78
2018-09-12T03:46:24.904Z,23.79
2018-09-12T03:47:34.575Z,23.78
2018-09-12T03:48:44.564Z,23.79
2018-09-12T03:49:53.752Z,23.69
2018-09-12T03:51:03.480Z,23.78
2018-09-12T03:52:13.477Z,23.8
2018-09-12T03:53:23.168Z,23.72
2018-09-12T03:54:32.595Z,23.84
2018-09-12T03:55:42.552Z,23.79
2018-09-12T03:56:52.500Z,23.8
2018-09-12T03:58:01.422Z,23.75
2018-09-12T03:59:10.852Z,23.8
2018-09-12T04:00:20.548Z,23.69
2018-09-12T04:01:29.744Z,23.75
2018-09-12T04:02:39.488Z,23.8
2018-09-12T04:03:49.272Z,23.8
2018-09-12T04:04:58.225Z,23.84
2018-09-12T04:06:07.385Z,23.8
2018-09-12T04:07:16.847Z,23.83
2018-09-12T04:08:26.813Z,23.87
2018-09-12T04:09:36.785Z,23.79
2018-09-12T04:10:46.298Z,23.78
2018-09-12T04:11:55.919Z,23.78
2018-09-12T04:13:05.341Z,23.78
2018-09-12T04:14:15.029Z,23.75
2018-09-12T04:15:24.460Z,23.73
2018-09-12T04:16:34.407Z,23.78
2018-09-12T04:17:43.893Z,23.69
2018-09-12T04:18:53.061Z,23.75
2018-09-12T04:20:03.002Z,23.83
2018-09-12T04:21:12.424Z,23.79
2018-09-12T04:22:21.842Z,23.72
2018-09-12T04:23:31.300Z,23.75
2018-09-12T04:24:41.035Z,23.75
2018-09-12T04:25:49.949Z,23.75
2018-09-12T04:26:59.365Z,23.75
2018-09-12T04:28:08.542Z,23.83
2018-09-12T04:29:17.729Z,23.8
2018-09-12T04:30:27.676Z,23.83
2018-09-12T04:31:37.147Z,23.78
2018-09-12T04:32:46.298Z,23.75
2018-09-12T04:33:56.257Z,23.8
2018-09-12T04:35:05.219Z,23.83
2018-09-12T04:36:14.933Z,23.73
2018-09-12T04:37:24.630Z,23.75
2018-09-12T04:38:34.585Z,23.73
2018-09-12T04:39:44.034Z,23.72
2018-09-12T04:40:53.515Z,23.72
2018-09-12T04:42:02.945Z,23.73
2018-09-12T04:43:12.125Z,23.72
2018-09-12T04:44:21.573Z,23.9
2018-09-12T04:45:31.006Z,23.83
2018-09-12T04:46:40.706Z,23.88
2018-09-12T04:47:50.394Z,23.75
2018-09-12T04:48:59.815Z,23.79
2018-09-12T04:50:09.245Z,23.68
2018-09-12T04:51:18.954Z,23.8
2018-09-12T04:52:28.384Z,23.73
2018-09-12T04:53:37.295Z,23.69
2018-09-12T04:54:46.731Z,23.69
2018-09-12T04:55:56.425Z,23.76
2018-09-12T04:57:05.864Z,23.73
2018-09-12T04:58:15.039Z,23.65
2018-09-12T04:59:23.975Z,23.63
2018-09-12T05:00:33.730Z,23.7
2018-09-12T05:01:43.259Z,23.69
2018-09-12T05:02:52.761Z,23.75
2018-09-12T05:04:02.260Z,23.69
2018-09-12T05:05:12.037Z,23.7
2018-09-12T05:06:21.461Z,23.65
2018-09-12T05:07:30.736Z,23.72
2018-09-12T05:08:39.931Z,23.66
2018-09-12T05:09:49.666Z,23.76
2018-09-12T05:10:59.343Z,23.68
2018-09-12T05:12:08.779Z,23.65
2018-09-12T05:13:17.485Z,23.72
2018-09-12T05:14:26.635Z,23.66
2018-09-12T05:15:36.069Z,23.7
2018-09-12T05:16:45.907Z,23.78
2018-09-12T05:17:55.558Z,23.72
2018-09-12T05:19:05.264Z,23.75
2018-09-12T05:20:14.417Z,23.69
2018-09-12T05:21:24.395Z,23.63
2018-09-12T05:22:34.129Z,23.68
2018-09-12T05:23:43.578Z,23.63
2018-09-12T05:24:52.496Z,23.65
2018-09-12T05:26:02.257Z,23.68
2018-09-12T05:27:11.469Z,23.63
2018-09-12T05:28:21.348Z,23.66
2018-09-12T05:29:30.798Z,23.66
2018-09-12T05:30:40.486Z,23.68
2018-09-12T05:31:49.676Z,23.63
2018-09-12T05:32:59.390Z,23.6
2018-09-12T05:34:09.369Z,23.65
2018-09-12T05:35:18.816Z,23.58
2018-09-12T05:36:27.772Z,23.69
2018-09-12T05:37:37.667Z,23.69
2018-09-12T05:38:47.137Z,23.61
2018-09-12T05:39:56.819Z,23.68
2018-09-12T05:41:06.257Z,23.66
2018-09-12T05:42:16.196Z,23.63
2018-09-12T05:43:25.901Z,23.65
2018-09-12T05:44:35.101Z,23.61
2018-09-12T05:45:44.539Z,23.66
2018-09-12T05:46:54.215Z,23.63
2018-09-12T05:48:03.941Z,23.73
2018-09-12T05:49:13.939Z,23.75
2018-09-12T05:50:23.544Z,23.79
2018-09-12T05:51:33.041Z,23.72
2018-09-12T05:52:42.221Z,23.72
2018-09-12T05:53:51.902Z,23.69
2018-09-12T05:55:01.600Z,23.76
2018-09-12T05:56:11.040Z,23.75
2018-09-12T05:57:20.969Z,23.84
2018-09-12T05:58:30.131Z,23.75
2018-09-12T05:59:39.338Z,23.76
2018-09-12T06:00:49.109Z,23.73
2018-09-12T06:01:58.608Z,23.79
2018-09-12T06:03:08.092Z,23.83
2018-09-12T06:04:17.834Z,23.8
2018-09-12T06:05:27.292Z,23.73
2018-09-12T06:06:37.277Z,23.75
2018-09-12T06:07:46.841Z,23.85
2018-09-12T06:08:55.499Z,23.76
2018-09-12T06:10:04.977Z,23.79
2018-09-12T06:11:14.425Z,23.91
2018-09-12T06:12:23.346Z,23.85
2018-09-12T06:13:32.540Z,23.94
2018-09-12T06:14:42.278Z,23.87
2018-09-12T06:15:51.484Z,23.88
2018-09-12T06:17:00.976Z,23.87
2018-09-12T06:18:10.437Z,23.97
2018-09-12T06:19:19.624Z,23.91
2018-09-12T06:20:29.061Z,23.8
2018-09-12T06:21:38.501Z,23.9
2018-09-12T06:22:47.944Z,23.83
2018-09-12T06:23:57.391Z,23.85
2018-09-12T06:25:06.585Z,23.83
2018-09-12T06:26:16.043Z,23.91
2018-09-12T06:27:26.039Z,23.93
2018-09-12T06:28:35.795Z,24.02
2018-09-12T06:29:45.526Z,23.88
2018-09-12T06:30:55.206Z,23.91
2018-09-12T06:32:04.362Z,23.87
2018-09-12T06:33:14.067Z,23.9
2018-09-12T06:34:23.751Z,23.9
2018-09-12T06:35:32.895Z,23.91
2018-09-12T06:36:42.305Z,23.88
2018-09-12T06:37:52.170Z,23.93
2018-09-12T06:39:02.027Z,23.9
2018-09-12T06:40:11.532Z,23.91
2018-09-12T06:41:20.986Z,23.88
2018-09-12T06:42:30.947Z,23.9
2018-09-12T06:43:40.385Z,23.88
2018-09-12T06:44:50.208Z,23.98
2018-09-12T06:45:59.425Z,23.9
2018-09-12T06:47:08.838Z,23.85
2018-09-12T06:48:18.375Z,23.95
2018-09-12T06:49:28.069Z,23.85
2018-09-12T06:50:37.765Z,23.91
2018-09-12T06:51:47.446Z,23.88
2018-09-12T06:52:57.427Z,23.9
2018-09-12T06:54:06.915Z,23.91
2018-09-12T06:55:16.368Z,23.87
2018-09-12T06:56:25.566Z,23.95
2018-09-12T06:57:35.022Z,23.95
2018-09-12T06:58:43.931Z,23.93
2018-09-12T06:59:53.391Z,23.88
2018-09-12T07:01:03.372Z,23.98
2018-09-12T07:02:13.315Z,24.06
2018-09-12T07:03:22.278Z,23.95
2018-09-12T07:04:31.206Z,23.94
2018-09-12T07:05:40.632Z,23.98
2018-09-12T07:06:49.547Z,24.05
2018-09-12T07:07:58.973Z,24.05
2018-09-12T07:09:08.147Z,24.02
2018-09-12T07:10:17.835Z,24.06
2018-09-12T07:11:27.361Z,24.05
2018-09-12T07:12:37.130Z,24.08
2018-09-12T07:13:46.832Z,24.03
2018-09-12T07:14:56.286Z,24.02
2018-09-12T07:16:05.485Z,24.05
2018-09-12T07:17:14.656Z,24.05
2018-09-12T07:18:23.601Z,24.02
2018-09-12T07:19:32.798Z,24.03
2018-09-12T07:20:42.246Z,24.09
2018-09-12T07:21:52.209Z,24.03
2018-09-12T07:23:01.913Z,24.03
2018-09-12T07:24:10.868Z,24.03
2018-09-12T07:25:20.622Z,24.12
2018-09-12T07:26:30.316Z,24.08
2018-09-12T07:27:40.307Z,24.09
2018-09-12T07:28:49.917Z,24.05
2018-09-12T07:29:59.379Z,24.03
2018-09-12T07:31:08.810Z,24.1
2018-09-12T07:32:18.001Z,24.09
2018-09-12T07:33:27.726Z,24.09
2018-09-12T07:34:37.420Z,24.09
2018-09-12T07:35:47.129Z,24.13
2018-09-12T07:36:56.579Z,24.12
2018-09-12T07:38:05.507Z,24.12
2018-09-12T07:39:14.941Z,24.15
2018-09-12T07:40:24.123Z,24.05
2018-09-12T07:41:33.611Z,24.09
2018-09-12T07:42:43.136Z,24.15
2018-09-12T07:43:52.562Z,24.13
2018-09-12T07:45:01.764Z,24.08
2018-09-12T07:46:10.934Z,24.09
2018-09-12T07:47:20.624Z,24.05
2018-09-12T07:48:30.300Z,24.18
2018-09-12T07:49:39.992Z,24.1
2018-09-12T07:50:49.413Z,24.16
2018-09-12T07:51:58.608Z,24.1
2018-09-12T07:53:08.041Z,24.05
2018-09-12T07:54:17.775Z,24.06
2018-09-12T07:55:27.789Z,24.16
2018-09-12T07:56:37.516Z,24.16
2018-09-12T07:57:47.008Z,24.06
2018-09-12T07:58:56.432Z,24.05
2018-09-12T08:00:05.433Z,24.09
2018-09-12T08:01:15.847Z,24.1
2018-09-12T08:02:25.843Z,24.2
2018-09-12T08:03:35.561Z,24.15
2018-09-12T08:04:45.545Z,24.22
2018-09-12T08:05:55.306Z,24.15
2018-09-12T08:07:04.752Z,24.21
2018-09-12T08:08:14.229Z,24.16
2018-09-12T08:09:24.446Z,24.22
2018-09-12T08:10:33.430Z,24.08
2018-09-12T08:11:42.862Z,24.21
2018-09-12T08:12:52.405Z,24.18
2018-09-12T08:14:01.868Z,24.15
2018-09-12T08:15:11.075Z,24.1
2018-09-12T08:16:20.553Z,24.12
2018-09-12T08:17:29.786Z,24.13
2018-09-12T08:18:39.012Z,24.24
2018-09-12T08:19:48.231Z,24.16
2018-09-12T08:20:57.966Z,24.18
2018-09-12T08:22:07.727Z,24.1
2018-09-12T08:23:16.914Z,24.24
2018-09-12T08:24:26.628Z,24.18
2018-09-12T08:25:36.061Z,24.13
2018-09-12T08:26:45.943Z,24.21
2018-09-12T08:27:56.103Z,24.16
2018-09-12T08:29:06.081Z,24.13
2018-09-12T08:30:16.099Z,24.18
2018-09-12T08:31:25.831Z,24.21
2018-09-12T08:32:35.589Z,24.22
2018-09-12T08:33:45.305Z,24.21
2018-09-12T08:34:54.800Z,24.18
2018-09-12T08:36:04.290Z,24.2
2018-09-12T08:37:14.275Z,24.21
2018-09-12T08:38:23.491Z,24.27
2018-09-12T08:39:32.931Z,24.24
2018-09-12T08:40:41.848Z,24.21
2018-09-12T08:41:51.542Z,24.2
2018-09-12T08:43:01.339Z,24.18
2018-09-12T08:44:10.549Z,24.2
2018-09-12T08:45:20.339Z,24.21
2018-09-12T08:46:30.320Z,24.25
2018-09-12T08:47:40.087Z,24.24
2018-09-12T08:48:49.659Z,24.24
2018-09-12T08:49:59.349Z,24.2
2018-09-12T08:51:09.066Z,24.22
2018-09-12T08:52:19.013Z,24.25
2018-09-12T08:53:28.176Z,24.27
2018-09-12T08:54:37.601Z,24.22
2018-09-12T08:55:47.029Z,24.27
2018-09-12T08:56:57.051Z,24.2
2018-09-12T08:58:06.318Z,24.2
2018-09-12T08:59:15.497Z,24.25
2018-09-12T09:00:24.698Z,24.28
2018-09-12T09:01:34.871Z,24.27
2018-09-12T09:02:44.763Z,24.22
2018-09-12T09:03:54.299Z,24.12
2018-09-12T09:05:04.382Z,24.28
2018-09-12T09:06:13.801Z,24.22
2018-09-12T09:07:23.486Z,24.31
2018-09-12T09:08:32.926Z,24.24
2018-09-12T09:09:42.105Z,24.21
2018-09-12T09:10:52.081Z,24.27
2018-09-12T09:12:01.828Z,24.22
2018-09-12T09:13:10.758Z,24.22
2018-09-12T09:14:20.203Z,24.24
2018-09-12T09:15:29.384Z,24.31
2018-09-12T09:16:38.815Z,24.15
2018-09-12T09:17:48.529Z,24.28
2018-09-12T09:18:57.173Z,24.3
2018-09-12T09:20:06.396Z,24.28
2018-09-12T09:21:15.833Z,24.31
2018-09-12T09:22:25.534Z,24.34
2018-09-12T09:23:35.072Z,24.2
2018-09-12T09:24:44.813Z,24.34
2018-09-12T09:25:54.476Z,24.28
2018-09-12T09:27:04.183Z,24.3
2018-09-12T09:28:13.903Z,24.25
2018-09-12T09:29:23.714Z,24.3
2018-09-12T09:30:33.637Z,24.3
2018-09-12T09:31:43.135Z,24.3
2018-09-12T09:32:53.423Z,24.25
2018-09-12T09:34:02.635Z,24.25
2018-09-12T09:35:12.003Z,24.32
2018-09-12T09:36:21.750Z,24.24
2018-09-12T09:37:31.455Z,24.28
2018-09-12T09:38:40.423Z,24.28
2018-09-12T09:39:50.171Z,24.32
2018-09-12T09:40:59.388Z,24.32
2018-09-12T09:42:09.483Z,24.28
2018-09-12T09:43:19.219Z,24.32
2018-09-12T09:44:28.505Z,24.27
2018-09-12T09:45:38.254Z,24.31
2018-09-12T09:46:47.981Z,24.31
2018-09-12T09:47:57.865Z,24.24
2018-09-12T09:49:07.567Z,24.31
2018-09-12T09:50:17.043Z,24.31
2018-09-12T09:51:26.268Z,24.34
2018-09-12T09:52:35.773Z,24.28
2018-09-12T09:53:45.203Z,24.3
2018-09-12T09:54:54.337Z,24.27
2018-09-12T09:56:04.293Z,24.32
2018-09-12T09:57:14.363Z,24.31
2018-09-12T09:58:23.603Z,24.31
2018-09-12T09:59:33.619Z,24.28
2018-09-12T10:00:43.354Z,24.28
2018-09-12T10:01:53.100Z,24.3
2018-09-12T10:03:02.050Z,24.28
2018-09-12T10:04:11.015Z,24.3
2018-09-12T10:05:20.471Z,24.31
2018-09-12T10:06:30.232Z,24.28
2018-09-12T10:07:39.414Z,24.3
2018-09-12T10:08:48.579Z,24.3
2018-09-12T10:09:57.490Z,24.31
2018-09-12T10:11:06.404Z,24.32
2018-09-12T10:12:15.842Z,24.28
2018-09-12T10:13:25.771Z,24.3
2018-09-12T10:14:35.208Z,24.28
2018-09-12T10:15:44.898Z,24.3
2018-09-12T10:16:54.420Z,24.31
2018-09-12T10:18:03.872Z,24.28
2018-09-12T10:19:13.586Z,24.31
2018-09-12T10:20:22.765Z,24.27
2018-09-12T10:21:31.923Z,24.31
2018-09-12T10:22:41.718Z,24.39
2018-09-12T10:23:50.903Z,24.32
2018-09-12T10:25:00.580Z,24.27
2018-09-12T10:26:10.347Z,24.3
2018-09-12T10:27:19.785Z,24.4
2018-09-12T10:28:28.703Z,24.32
2018-09-12T10:29:38.129Z,24.3
2018-09-12T10:30:47.033Z,24.28
2018-09-12T10:31:56.445Z,24.28
2018-09-12T10:33:05.886Z,24.34
2018-09-12T10:34:15.053Z,24.37
2018-09-12T10:35:24.735Z,24.39
2018-09-12T10:36:34.249Z,24.34
2018-09-12T10:37:43.661Z,24.32
2018-09-12T10:38:53.348Z,24.43
2018-09-12T10:40:03.131Z,24.31
2018-09-12T10:41:12.726Z,24.32
2018-09-12T10:42:22.423Z,24.34
2018-09-12T10:43:31.889Z,24.42
2018-09-12T10:44:41.597Z,24.32
2018-09-12T10:45:50.769Z,24.43
2018-09-12T10:47:00.201Z,24.4
2018-09-12T10:48:10.403Z,24.28
2018-09-12T10:49:19.819Z,24.43
2018-09-12T10:50:29.279Z,24.4
2018-09-12T10:51:38.487Z,24.34
2018-09-12T10:52:47.653Z,24.4
2018-09-12T10:53:56.832Z,24.4
2018-09-12T10:55:06.537Z,24.43
2018-09-12T10:56:15.963Z,24.28
2018-09-12T10:57:25.507Z,24.32
2018-09-12T10:58:34.939Z,24.37
2018-09-12T10:59:44.100Z,24.39
2018-09-12T11:00:53.515Z,24.39
2018-09-12T11:02:02.947Z,24.22
2018-09-12T11:03:12.108Z,24.35
2018-09-12T11:04:21.709Z,24.35
2018-09-12T11:05:31.287Z,24.46
2018-09-12T11:06:40.210Z,24.43
2018-09-12T11:07:49.648Z,24.34
2018-09-12T11:08:59.136Z,24.43
2018-09-12T11:10:08.294Z,24.46
2018-09-12T11:11:17.719Z,24.31
2018-09-12T11:12:27.656Z,24.39
2018-09-12T11:13:36.816Z,24.46
2018-09-12T11:14:46.244Z,24.34
2018-09-12T11:15:55.690Z,24.35
2018-09-12T11:17:04.928Z,24.31
2018-09-12T11:18:14.357Z,24.42
2018-09-12T11:19:24.051Z,24.46
2018-09-12T11:20:33.219Z,24.43
2018-09-12T11:21:42.383Z,24.4
2018-09-12T11:22:51.559Z,24.32
2018-09-12T11:24:01.105Z,24.37
2018-09-12T11:25:10.779Z,24.28
2018-09-12T11:26:19.959Z,24.34
2018-09-12T11:27:28.863Z,24.34
2018-09-12T11:28:38.285Z,24.45
2018-09-12T11:29:48.047Z,24.3
2018-09-12T11:30:57.751Z,24.47
2018-09-12T11:32:07.183Z,24.32
2018-09-12T11:33:16.644Z,24.37
2018-09-12T11:34:26.140Z,24.28
2018-09-12T11:35:35.572Z,24.31
2018-09-12T11:36:45.703Z,24.31
2018-09-12T11:37:54.863Z,24.47
2018-09-12T11:39:04.295Z,24.28
2018-09-12T11:40:13.854Z,24.31
2018-09-12T11:41:23.662Z,24.32
2018-09-12T11:42:33.084Z,24.42
2018-09-12T11:43:42.507Z,24.35
2018-09-12T11:44:52.449Z,24.43
2018-09-12T11:46:01.908Z,24.31
2018-09-12T11:47:11.483Z,24.4
2018-09-12T11:48:20.911Z,24.32
2018-09-12T11:49:29.917Z,24.24
2018-09-12T11:50:39.424Z,24.32
2018-09-12T11:51:48.829Z,24.3
2018-09-12T11:52:58.523Z,24.45
2018-09-12T11:54:08.200Z,24.35
2018-09-12T11:55:17.611Z,24.32
2018-09-12T11:56:27.116Z,24.45
2018-09-12T11:57:36.574Z,24.31
2018-09-12T11:58:46.252Z,24.42
2018-09-12T11:59:55.452Z,24.37
2018-09-12T12:01:04.925Z,24.42
2018-09-12T12:02:15.086Z,24.43
2018-09-12T12:03:25.440Z,24.34
2018-09-12T12:04:34.872Z,24.47
2018-09-12T12:05:44.069Z,24.43
2018-09-12T12:06:53.513Z,24.47
2018-09-12T12:08:02.949Z,24.28
2018-09-12T12:09:11.881Z,24.34
2018-09-12T12:10:21.059Z,24.32
2018-09-12T12:11:30.241Z,24.47
2018-09-12T12:12:39.792Z,24.31
2018-09-12T12:13:49.478Z,24.4
2018-09-12T12:14:58.703Z,24.4
2018-09-12T12:16:07.641Z,24.4
2018-09-12T12:17:17.072Z,24.28
2018-09-12T12:18:26.757Z,24.39
2018-09-12T12:19:36.446Z,24.53
2018-09-12T12:20:45.618Z,24.43
2018-09-12T12:21:55.051Z,24.42
2018-09-12T12:23:04.914Z,24.31
2018-09-12T12:24:14.667Z,24.32
2018-09-12T12:25:23.828Z,24.43
2018-09-12T12:26:32.999Z,24.39
2018-09-12T12:27:42.488Z,24.42
2018-09-12T12:28:51.913Z,24.34
2018-09-12T12:30:01.332Z,24.46
2018-09-12T12:31:10.756Z,24.42
2018-09-12T12:32:19.933Z,24.42
2018-09-12T12:33:28.837Z,24.5
2018-09-12T12:34:38.582Z,24.46
2018-09-12T12:35:47.766Z,24.5
2018-09-12T12:36:57.703Z,24.43
2018-09-12T12:38:07.422Z,24.35
2018-09-12T12:39:16.910Z,24.49
2018-09-12T12:40:26.093Z,24.4
2018-09-12T12:41:35.273Z,24.4
2018-09-12T12:42:45.223Z,24.34
2018-09-12T12:43:54.669Z,24.46
2018-09-12T12:45:03.816Z,24.49
2018-09-12T12:46:13.558Z,24.45
2018-09-12T12:47:23.241Z,24.43
2018-09-12T12:48:32.666Z,24.46
2018-09-12T12:49:41.573Z,24.42
2018-09-12T12:50:50.996Z,24.4
2018-09-12T12:52:00.678Z,24.42
2018-09-12T12:53:10.619Z,24.49
2018-09-12T12:54:20.050Z,24.46
2018-09-12T12:55:29.742Z,24.49
2018-09-12T12:56:39.191Z,24.43
2018-09-12T12:57:48.629Z,24.45
2018-09-12T12:58:57.843Z,24.52
2018-09-12T13:00:07.528Z,24.5
2018-09-12T13:01:17.466Z,24.43
2018-09-12T13:02:26.669Z,24.45
2018-09-12T13:03:36.095Z,24.52
2018-09-12T13:04:45.574Z,24.49
2018-09-12T13:05:55.030Z,24.5
2018-09-12T13:07:04.863Z,24.57
2018-09-12T13:08:14.593Z,24.5
2018-09-12T13:09:24.387Z,24.53
2018-09-12T13:10:33.911Z,24.52
2018-09-12T13:11:43.352Z,24.57
2018-09-12T13:12:52.590Z,24.52
2018-09-12T13:14:02.394Z,24.49
2018-09-12T13:15:11.926Z,24.53
2018-09-12T13:16:21.694Z,24.55
2018-09-12T13:17:31.473Z,24.52
2018-09-12T13:18:41.003Z,24.52
2018-09-12T13:19:50.849Z,24.57
2018-09-12T13:21:00.355Z,24.57
2018-09-12T13:22:09.577Z,24.52
2018-09-12T13:23:19.353Z,24.6
2018-09-12T13:24:29.156Z,24.57
2018-09-12T13:25:38.866Z,24.58
2018-09-12T13:26:48.643Z,24.58
2018-09-12T13:27:58.782Z,24.62
2018-09-12T13:29:08.186Z,24.58
2018-09-12T13:30:17.441Z,24.57
2018-09-12T13:31:26.685Z,24.64
2018-09-12T13:32:35.650Z,24.57
2018-09-12T13:33:44.797Z,24.58
2018-09-12T13:34:53.975Z,24.64
2018-09-12T13:36:03.663Z,24.61
2018-09-12T13:37:13.409Z,24.64
2018-09-12T13:38:22.591Z,24.64
2018-09-12T13:39:31.775Z,24.65
2018-09-12T13:40:41.487Z,24.67
2018-09-12T13:41:50.982Z,24.62
2018-09-12T13:43:00.451Z,24.69
2018-09-12T13:44:09.700Z,24.73
2018-09-12T13:45:19.140Z,24.68
2018-09-12T13:46:28.405Z,24.69
2018-09-12T13:47:38.238Z,24.68
2018-09-12T13:48:47.516Z,24.69
2018-09-12T13:49:56.999Z,24.71
2018-09-12T13:51:06.530Z,24.73
2018-09-12T13:52:15.745Z,24.73
2018-09-12T13:53:25.207Z,24.69
2018-09-12T13:54:35.220Z,24.64
2018-09-12T13:55:45.304Z,24.77
2018-09-12T13:56:54.505Z,24.73
2018-09-12T13:58:04.083Z,24.68
2018-09-12T13:59:13.327Z,24.68
2018-09-12T14:00:22.790Z,24.78
2018-09-12T14:01:32.745Z,24.76
2018-09-12T14:02:43.449Z,24.73
2018-09-12T14:03:53.260Z,24.71
2018-09-12T14:05:03.005Z,24.69
2018-09-12T14:06:12.218Z,24.73
2018-09-12T14:07:21.161Z,24.71
2018-09-12T14:08:30.912Z,24.78
2018-09-12T14:09:40.126Z,24.77
2018-09-12T14:10:49.339Z,24.76
2018-09-12T14:11:58.277Z,24.77
2018-09-12T14:13:07.550Z,24.71
2018-09-12T14:14:17.445Z,24.8
2018-09-12T14:15:26.934Z,24.73
2018-09-12T14:16:36.626Z,24.77
2018-09-12T14:17:46.585Z,24.69
2018-09-12T14:18:55.756Z,24.73
2018-09-12T14:20:04.983Z,24.78
2018-09-12T14:21:14.677Z,24.76
2018-09-12T14:22:24.686Z,24.78
2018-09-12T14:23:34.133Z,24.77
2018-09-12T14:24:43.338Z,24.76
2018-09-12T14:25:52.794Z,24.78
2018-09-12T14:27:02.472Z,24.8
2018-09-12T14:28:11.918Z,24.78
2018-09-12T14:29:21.641Z,24.69
2018-09-12T14:30:31.090Z,24.77
2018-09-12T14:31:40.933Z,24.76
2018-09-12T14:32:50.096Z,24.77
2018-09-12T14:33:59.021Z,24.77
2018-09-12T14:35:08.514Z,24.71
2018-09-12T14:36:18.023Z,24.78
2018-09-12T14:37:27.440Z,24.76
2018-09-12T14:38:36.404Z,24.71
2018-09-12T14:39:46.123Z,24.69
2018-09-12T14:40:55.624Z,24.78
2018-09-12T14:42:04.982Z,24.76
2018-09-12T14:43:15.129Z,24.76
2018-09-12T14:44:24.097Z,24.76
2018-09-12T14:45:33.550Z,24.71
2018-09-12T14:46:42.718Z,24.68
2018-09-12T14:47:51.898Z,24.76
2018-09-12T14:49:01.063Z,24.77
2018-09-12T14:50:10.546Z,24.71
2018-09-12T14:51:19.796Z,24.76
2018-09-12T14:52:28.768Z,24.67
2018-09-12T14:53:37.946Z,24.65
2018-09-12T14:54:46.598Z,24.62
2018-09-12T14:55:56.059Z,24.68
2018-09-12T14:57:05.530Z,24.68
2018-09-12T14:58:14.702Z,24.67
2018-09-12T14:59:23.639Z,24.68